Time;durP1;ratioP1;P1;durP2;ratioP2;P2;SDS_P1;SDS_P2;PMS_P1;PMS_P2;Temp;Humidity;BMP_temperature;BMP_pressure;BME280_temperature;BME280_humidity;BME280_pressure;Samples;Min_cycle;Max_cycle;Signal;HPM_P1;HPM_P2
2022/06/30 00:00:05;;;;;;;2.38;2.17;;;;;;;22.52;47.89;99532.03;4990826;28;20046;-61
2022/06/30 00:02:37;;;;;;;3.87;2.27;;;;;;;22.52;47.75;99525.81;4974373;28;20084;-62
2022/06/30 00:05:05;;;;;;;3.45;2.10;;;;;;;22.52;47.82;99525.81;4990707;28;20325;-62
2022/06/30 00:07:32;;;;;;;2.13;1.90;;;;;;;22.51;47.80;99526.81;4973541;28;20042;-61
2022/06/30 00:09:59;;;;;;;2.50;2.30;;;;;;;22.52;47.96;99536.53;4990346;28;20057;-61
2022/06/30 00:12:25;;;;;;;4.47;2.30;;;;;;;22.51;48.01;99535.69;4973600;28;20050;-63
2022/06/30 00:14:53;;;;;;;3.35;2.08;;;;;;;22.51;47.82;99530.31;4990679;28;20089;-62
2022/06/30 00:17:19;;;;;;;4.13;2.50;;;;;;;22.51;48.07;99530.31;4990873;28;20039;-65
2022/06/30 00:19:46;;;;;;;4.15;2.10;;;;;;;22.52;48.06;99526.66;4990169;28;20482;-61
2022/06/30 00:22:13;;;;;;;3.95;2.40;;;;;;;22.54;48.12;99522.97;4990748;28;20101;-62
2022/06/30 00:24:40;;;;;;;3.25;2.30;;;;;;;22.56;48.42;99518.28;4990549;28;20104;-62
2022/06/30 00:27:07;;;;;;;3.83;2.30;;;;;;;22.58;48.46;99516.28;4990842;28;20499;-62
2022/06/30 00:29:34;;;;;;;2.55;2.22;;;;;;;22.59;48.09;99517.94;4993240;28;20101;-63
2022/06/30 00:32:00;;;;;;;3.08;2.67;;;;;;;22.60;48.46;99511.56;4994223;28;20054;-62
2022/06/30 00:34:27;;;;;;;4.40;2.55;;;;;;;22.62;48.45;99501.50;4994151;28;20077;-62
2022/06/30 00:36:54;;;;;;;3.15;2.40;;;;;;;22.61;48.59;99507.88;4993910;28;20391;-64
2022/06/30 00:39:21;;;;;;;4.43;2.35;;;;;;;22.61;48.58;99507.88;4993859;28;20050;-62
2022/06/30 00:41:48;;;;;;;4.40;2.50;;;;;;;22.60;48.43;99506.19;4976534;28;20054;-62
2022/06/30 00:44:15;;;;;;;4.07;2.78;;;;;;;22.58;48.52;99509.03;4994026;28;20050;-62
2022/06/30 00:46:42;;;;;;;3.63;2.72;;;;;;;22.57;48.64;99507.38;4993712;28;20046;-61
2022/06/30 00:49:09;;;;;;;6.05;3.10;;;;;;;22.58;48.81;99511.72;4993496;28;20057;-63
2022/06/30 00:51:35;;;;;;;4.47;2.63;;;;;;;22.58;48.80;99508.22;4993576;28;20053;-61
2022/06/30 00:54:05;;;;;;;3.30;2.70;;;;;;;22.57;48.81;99507.38;4993831;28;20038;-62
2022/06/30 00:56:36;;;;;;;3.22;2.72;;;;;;;22.56;49.05;99503.03;4993543;28;20051;-64
2022/06/30 00:59:05;;;;;;;3.03;2.50;;;;;;;22.56;48.74;99488.78;4976015;28;20109;-63
2022/06/30 01:01:32;;;;;;;4.78;2.60;;;;;;;22.55;49.02;99495.16;4975982;28;20475;-62
2022/06/30 01:04:00;;;;;;;5.45;2.75;;;;;;;22.52;48.86;99494.47;4976043;28;20050;-62
2022/06/30 01:06:28;;;;;;;3.20;2.42;;;;;;;22.50;48.85;99480.38;4993436;28;20053;-62
2022/06/30 01:08:55;;;;;;;2.60;2.40;;;;;;;22.48;49.21;99484.25;4976117;28;20058;-64
2022/06/30 01:14:06;;;;;;;6.40;2.75;;;;;;;22.44;49.08;99481.09;4993282;28;20050;-64
2022/06/30 01:16:33;;;;;;;3.38;2.65;;;;;;;22.41;49.01;99473.38;4993176;28;20057;-62
2022/06/30 01:19:00;;;;;;;3.15;2.40;;;;;;;22.37;48.97;99472.88;4993334;28;20050;-62
2022/06/30 01:21:28;;;;;;;4.53;2.67;;;;;;;22.34;49.05;99483.94;4975680;28;20042;-62
2022/06/30 01:23:55;;;;;;;4.43;2.58;;;;;;;22.32;49.19;99477.09;4993371;28;20057;-63
2022/06/30 01:26:27;;;;;;;3.03;2.70;;;;;;;22.28;49.71;99481.13;4992919;28;20435;-62
2022/06/30 01:28:53;;;;;;;3.67;2.80;;;;;;;22.26;49.14;99470.56;4975699;28;20092;-62
2022/06/30 01:31:20;;;;;;;3.38;2.80;;;;;;;22.23;49.34;99474.41;4993073;28;20060;-62
2022/06/30 01:33:47;;;;;;;6.88;2.58;;;;;;;22.20;49.37;99479.31;4992771;28;20053;-62
2022/06/30 01:36:14;;;;;;;4.10;2.85;;;;;;;22.17;49.72;99477.81;4992860;28;20066;-62
2022/06/30 01:38:41;;;;;;;5.85;2.90;;;;;;;22.15;49.72;99471.75;4992999;28;20050;-62
2022/06/30 01:41:08;;;;;;;4.35;2.67;;;;;;;22.12;50.07;99478.28;4992040;28;20050;-62
2022/06/30 01:43:34;;;;;;;3.10;2.63;;;;;;;22.12;49.81;99480.13;4992793;28;20046;-62
2022/06/30 01:46:01;;;;;;;3.20;2.90;;;;;;;22.11;49.79;99486.50;4993072;28;20054;-62
2022/06/30 01:48:28;;;;;;;4.10;2.90;;;;;;;22.09;49.85;99475.13;4992296;28;20097;-62
2022/06/30 01:50:54;;;;;;;3.72;2.95;;;;;;;22.07;49.93;99475.28;4992678;28;20065;-62
2022/06/30 01:53:21;;;;;;;4.10;2.90;;;;;;;22.06;49.94;99465.59;4992623;28;20054;-62
2022/06/30 01:55:47;;;;;;;3.58;2.45;;;;;;;22.06;50.23;99464.75;4992506;28;20046;-62
2022/06/30 01:58:14;;;;;;;3.05;2.53;;;;;;;22.05;50.16;99463.06;4992025;28;20047;-61
2022/06/30 02:00:40;;;;;;;3.40;2.80;;;;;;;22.04;50.14;99458.69;4992784;28;20050;-61
2022/06/30 02:03:07;;;;;;;3.30;3.00;;;;;;;22.04;50.30;99461.38;4992410;28;20415;-61
2022/06/30 02:05:34;;;;;;;4.03;2.70;;;;;;;22.03;50.24;99459.72;4992268;28;20053;-62
2022/06/30 02:08:01;;;;;;;4.22;2.72;;;;;;;22.01;50.29;99454.50;4992309;28;20050;-62
2022/06/30 02:10:27;;;;;;;4.15;3.00;;;;;;;22.00;50.40;99459.06;4992130;28;20487;-63
2022/06/30 02:12:54;;;;;;;3.65;3.08;;;;;;;21.99;50.33;99461.91;4992079;28;20534;-62
2022/06/30 02:15:32;;;;;;;5.28;2.70;;;;;;;21.93;50.96;99463.41;4992598;28;20549;-63
2022/06/30 02:18:02;;;;;;;3.53;3.05;;;;;;;21.93;50.96;99455.38;4991958;28;20053;-61
2022/06/30 02:20:29;;;;;;;4.15;2.80;;;;;;;21.92;50.54;99453.72;4991889;28;20049;-61
2022/06/30 02:22:59;;;;;;;4.72;2.78;;;;;;;21.89;50.71;99462.06;4991940;28;20181;-64
2022/06/30 02:25:27;;;;;;;5.40;2.90;;;;;;;21.88;50.77;99460.41;4974679;28;20113;-61
2022/06/30 02:27:54;;;;;;;3.80;2.95;;;;;;;21.85;50.69;99464.25;4974771;28;20360;-61
2022/06/30 02:30:22;;;;;;;5.13;3.33;;;;;;;21.84;51.03;99467.09;4991917;28;20075;-61
2022/06/30 02:32:48;;;;;;;3.70;2.80;;;;;;;21.80;50.79;99469.28;4992028;28;20060;-63
2022/06/30 02:35:16;;;;;;;3.33;3.03;;;;;;;21.78;50.96;99465.09;4991741;28;20125;-62
2022/06/30 02:37:42;;;;;;;3.78;2.80;;;;;;;21.74;51.09;99456.56;4991723;28;20482;-62
2022/06/30 02:40:10;;;;;;;3.55;3.25;;;;;;;21.73;51.12;99458.41;4991611;28;20097;-62
2022/06/30 02:42:37;;;;;;;3.53;3.22;;;;;;;21.69;50.97;99440.97;4991628;28;20046;-61
2022/06/30 02:45:04;;;;;;;4.47;3.30;;;;;;;21.68;51.20;99441.97;4991813;28;20058;-61
2022/06/30 02:47:36;;;;;;;4.30;3.50;;;;;;;21.63;51.71;99444.31;4974334;28;20050;-62
2022/06/30 02:50:06;;;;;;;4.60;3.80;;;;;;;21.62;51.41;99439.97;4991691;28;20100;-62
2022/06/30 02:52:34;;;;;;;5.95;3.95;;;;;;;21.61;51.41;99441.78;4991397;28;20082;-63
2022/06/30 02:55:02;;;;;;;3.83;3.20;;;;;;;21.58;51.48;99438.63;4974281;28;20482;-63
2022/06/30 02:57:29;;;;;;;4.97;3.28;;;;;;;21.55;51.46;99436.28;4974201;28;20486;-63
2022/06/30 02:59:56;;;;;;;4.68;3.40;;;;;;;21.53;51.48;99435.63;4991206;28;20047;-61
2022/06/30 03:02:23;;;;;;;4.65;3.25;;;;;;;21.49;51.62;99432.41;4991307;28;20461;-62
2022/06/30 03:04:49;;;;;;;4.13;3.20;;;;;;;21.47;51.82;99437.13;4991341;28;20050;-61
2022/06/30 03:07:16;;;;;;;5.90;3.45;;;;;;;21.46;51.88;99438.13;4991370;28;20078;-62
2022/06/30 03:09:43;;;;;;;3.78;2.97;;;;;;;21.44;51.82;99440.13;4991089;28;20088;-61
2022/06/30 03:12:09;;;;;;;7.30;3.10;;;;;;;21.41;52.05;99435.94;4991451;28;20446;-62
2022/06/30 03:14:36;;;;;;;6.40;3.40;;;;;;;21.39;52.00;99429.06;4991616;28;20081;-62
2022/06/30 03:17:03;;;;;;;5.82;3.20;;;;;;;21.36;52.12;99430.25;4991203;28;20446;-62
2022/06/30 03:19:29;;;;;;;3.58;3.10;;;;;;;21.35;52.18;99432.06;4990824;28;20054;-62
2022/06/30 03:21:56;;;;;;;3.85;3.30;;;;;;;21.32;52.22;99432.44;4991291;28;20050;-62
2022/06/30 03:24:23;;;;;;;3.65;3.00;;;;;;;21.30;52.07;99431.75;4991048;28;20482;-61
2022/06/30 03:26:50;;;;;;;4.20;3.33;;;;;;;21.29;52.14;99439.94;4991207;28;20137;-62
2022/06/30 03:29:16;;;;;;;3.35;2.95;;;;;;;21.27;52.69;99441.94;4990959;28;20042;-62
2022/06/30 03:31:43;;;;;;;4.85;3.05;;;;;;;21.25;52.39;99433.22;4991094;28;20120;-62
2022/06/30 03:34:10;;;;;;;4.90;3.20;;;;;;;21.23;52.41;99425.38;4991026;28;20082;-63
2022/06/30 03:36:37;;;;;;;7.57;2.80;;;;;;;21.23;52.58;99422.69;4991049;28;20112;-61
2022/06/30 03:39:04;;;;;;;5.28;3.28;;;;;;;21.21;52.51;99428.22;4991023;28;20046;-62
2022/06/30 03:41:31;;;;;;;4.95;3.00;;;;;;;21.20;52.76;99431.88;4990934;28;20035;-61
2022/06/30 03:43:57;;;;;;;4.82;3.45;;;;;;;21.19;52.51;99429.38;4991008;28;20054;-62
2022/06/30 03:46:24;;;;;;;4.35;3.35;;;;;;;21.13;52.73;99420.19;4990682;28;20483;-63
2022/06/30 03:48:51;;;;;;;4.65;3.47;;;;;;;21.09;52.69;99419.66;4990596;28;20046;-63
2022/06/30 03:51:17;;;;;;;4.10;3.22;;;;;;;21.04;52.58;99426.53;4991031;28;20061;-62
2022/06/30 03:53:44;;;;;;;5.75;3.13;;;;;;;20.99;52.70;99434.19;4990807;28;20398;-62
2022/06/30 03:56:11;;;;;;;4.10;3.03;;;;;;;20.94;52.96;99435.50;4990852;28;20050;-61
2022/06/30 03:58:37;;;;;;;4.50;3.15;;;;;;;20.90;53.03;99434.16;4990699;28;20046;-62
2022/06/30 04:01:04;;;;;;;4.93;3.03;;;;;;;20.89;53.12;99437.03;4990603;28;20046;-63
2022/06/30 04:03:31;;;;;;;3.05;2.60;;;;;;;20.86;53.51;99434.63;4992337;28;20100;-63
2022/06/30 04:05:57;;;;;;;3.35;2.83;;;;;;;20.85;53.24;99444.50;4994541;28;20478;-62
2022/06/30 04:08:24;;;;;;;3.88;2.53;;;;;;;20.82;53.54;99442.97;4994371;28;20104;-62
2022/06/30 04:10:51;;;;;;;3.35;2.80;;;;;;;20.82;53.00;99437.63;4994205;28;20042;-62
2022/06/30 04:13:18;;;;;;;3.28;2.63;;;;;;;20.81;53.50;99437.78;4994306;28;20434;-61
2022/06/30 04:15:45;;;;;;;3.50;2.70;;;;;;;20.81;53.68;99437.78;4994134;28;20058;-64
2022/06/30 04:18:12;;;;;;;4.40;2.92;;;;;;;20.80;53.54;99438.78;4994154;28;20038;-62
2022/06/30 04:20:39;;;;;;;2.92;2.55;;;;;;;20.79;53.69;99435.28;4994097;28;20046;-64
2022/06/30 04:23:05;;;;;;;3.75;2.63;;;;;;;20.80;53.82;99436.97;4994297;28;20046;-61
2022/06/30 04:25:33;;;;;;;6.75;2.58;;;;;;;20.82;53.78;99431.47;4994299;28;20055;-62
2022/06/30 04:28:00;;;;;;;5.18;2.60;;;;;;;20.85;54.00;99432.97;4993974;28;20116;-62
2022/06/30 04:33:13;;;;;;;3.47;2.40;;;;;;;20.90;54.12;99425.31;4994263;28;20097;-62
2022/06/30 04:35:40;;;;;;;3.90;2.80;;;;;;;20.94;54.28;99432.03;4994304;28;20506;-61
2022/06/30 04:38:07;;;;;;;3.10;2.80;;;;;;;20.98;54.22;99428.03;4993696;28;20046;-61
2022/06/30 04:43:19;;;;;;;3.15;2.72;;;;;;;21.06;54.73;99424.50;4994019;28;20053;-61
2022/06/30 04:45:46;;;;;;;2.90;2.70;;;;;;;21.11;54.65;99427.53;4993910;28;20054;-61
2022/06/30 04:48:12;;;;;;;3.00;2.70;;;;;;;21.15;54.57;99436.91;4993598;28;20138;-61
2022/06/30 04:50:40;;;;;;;4.40;2.97;;;;;;;21.20;54.73;99431.88;4993641;28;20101;-62
2022/06/30 04:53:07;;;;;;;3.50;3.17;;;;;;;21.24;54.73;99434.25;4976342;28;20054;-62
2022/06/30 04:55:33;;;;;;;2.80;2.60;;;;;;;21.28;54.62;99432.91;4993847;28;20103;-63
2022/06/30 04:58:00;;;;;;;3.40;2.63;;;;;;;21.32;54.54;99431.59;4985731;28;20047;-62
2022/06/30 05:00:27;;;;;;;3.65;3.05;;;;;;;21.37;54.55;99431.09;4993402;28;20138;-62
2022/06/30 05:02:53;;;;;;;7.85;2.90;;;;;;;21.41;54.77;99427.09;4993527;28;20051;-61
2022/06/30 05:05:20;;;;;;;3.55;2.95;;;;;;;21.46;54.38;99422.06;4993580;28;20050;-62
2022/06/30 05:07:47;;;;;;;3.72;2.97;;;;;;;21.51;54.56;99426.91;4993415;28;20051;-62
2022/06/30 05:10:13;;;;;;;4.07;3.10;;;;;;;21.56;54.41;99419.19;4993537;28;20050;-61
2022/06/30 05:12:40;;;;;;;3.10;2.80;;;;;;;21.59;54.48;99410.81;4993062;28;20486;-62
2022/06/30 05:15:07;;;;;;;4.30;2.88;;;;;;;21.63;54.60;99412.16;4993305;28;20103;-61
2022/06/30 05:17:34;;;;;;;3.13;2.85;;;;;;;21.68;54.37;99415.16;4993456;28;20041;-62
2022/06/30 05:20:02;;;;;;;3.63;3.10;;;;;;;21.73;54.28;99412.88;4993032;28;20042;-62
2022/06/30 05:22:29;;;;;;;3.83;3.30;;;;;;;21.79;54.59;99414.03;4992891;28;20138;-62
2022/06/30 05:27:45;;;;;;;3.38;3.08;;;;;;;21.90;54.75;99412.00;4993321;28;20093;-62
2022/06/30 05:30:12;;;;;;;3.72;3.15;;;;;;;21.95;54.59;99410.50;4975543;28;20101;-62
2022/06/30 05:32:39;;;;;;;4.75;3.20;;;;;;;22.00;54.54;99416.19;4976071;28;20521;-63
2022/06/30 05:35:06;;;;;;;3.85;3.30;;;;;;;22.06;54.57;99405.78;4993052;28;20047;-61
2022/06/30 05:37:33;;;;;;;4.00;3.50;;;;;;;22.11;54.70;99408.78;4993115;28;20133;-61
2022/06/30 05:39:59;;;;;;;4.53;3.67;;;;;;;22.17;54.47;99409.94;4992600;28;20096;-60
2022/06/30 05:42:26;;;;;;;5.10;3.50;;;;;;;22.22;54.57;99407.56;4993215;28;20120;-60
2022/06/30 05:44:53;;;;;;;4.43;3.33;;;;;;;22.28;54.88;99403.38;4993178;28;20061;-62
2022/06/30 05:47:19;;;;;;;4.47;3.20;;;;;;;22.34;54.56;99399.97;4992664;28;20137;-62
2022/06/30 05:49:46;;;;;;;3.47;3.17;;;;;;;22.39;54.40;99413.72;4992527;28;20089;-61
2022/06/30 05:52:13;;;;;;;3.90;3.13;;;;;;;22.46;54.44;99408.50;4992817;28;20045;-62
2022/06/30 05:54:39;;;;;;;6.30;3.28;;;;;;;22.50;54.34;99407.97;4992643;28;20046;-61
2022/06/30 05:57:06;;;;;;;3.53;3.22;;;;;;;22.56;54.22;99416.34;4975309;28;20046;-60
2022/06/30 05:59:34;;;;;;;4.35;3.10;;;;;;;22.61;54.23;99400.59;4974790;28;20049;-63
2022/06/30 06:02:00;;;;;;;4.28;3.75;;;;;;;22.65;54.45;99401.88;4992342;28;20479;-61
2022/06/30 06:04:28;;;;;;;4.68;3.78;;;;;;;22.70;54.24;99404.91;4992390;28;20085;-61
2022/06/30 06:06:54;;;;;;;6.13;3.53;;;;;;;22.75;53.98;99401.66;4992477;28;20077;-60
2022/06/30 06:09:21;;;;;;;3.85;3.45;;;;;;;22.82;54.35;99404.47;4992006;28;20070;-61
2022/06/30 06:11:47;;;;;;;6.93;3.30;;;;;;;22.86;54.50;99400.44;4992475;28;20050;-60
2022/06/30 06:14:14;;;;;;;4.22;3.70;;;;;;;22.90;54.35;99399.91;4974746;28;20054;-64
2022/06/30 06:16:41;;;;;;;4.10;3.40;;;;;;;22.96;54.24;99403.75;4992050;28;20050;-62
2022/06/30 06:19:07;;;;;;;5.50;3.88;;;;;;;23.01;54.14;99398.69;4992112;28;20061;-62
2022/06/30 06:21:36;;;;;;;4.72;3.60;;;;;;;23.07;54.55;99407.03;4991864;28;20494;-62
2022/06/30 06:24:02;;;;;;;4.45;4.05;;;;;;;23.13;54.44;99412.50;4992051;28;20047;-62
2022/06/30 06:26:29;;;;;;;3.70;3.33;;;;;;;23.17;54.16;99405.78;4991530;28;20282;-61
2022/06/30 06:29:08;;;;;;;4.30;3.90;;;;;;;23.23;54.14;99408.75;4991721;28;20072;-62
2022/06/30 06:31:40;;;;;;;6.22;3.70;;;;;;;23.27;54.66;99408.22;4974925;28;20054;-62
2022/06/30 06:34:07;;;;;;;5.55;4.68;;;;;;;23.35;54.79;99401.13;4992018;28;20046;-62
2022/06/30 06:36:35;;;;;;;5.47;3.78;;;;;;;23.41;54.44;99406.63;4991728;28;20104;-62
2022/06/30 06:39:02;;;;;;;5.70;5.00;;;;;;;23.49;54.59;99404.88;4991615;28;20047;-64
2022/06/30 06:41:28;;;;;;;7.88;4.93;;;;;;;23.56;54.73;99408.53;4991572;28;20050;-61
2022/06/30 06:43:55;;;;;;;6.30;5.20;;;;;;;23.64;54.88;99402.25;4991858;28;20046;-61
2022/06/30 06:46:26;;;;;;;8.13;5.30;;;;;;;23.71;55.02;99400.50;4991785;28;20113;-63
2022/06/30 06:48:55;;;;;;;6.18;5.45;;;;;;;23.80;54.71;99399.41;4974197;28;20447;-60
2022/06/30 06:51:22;;;;;;;5.57;5.03;;;;;;;23.87;54.58;99410.25;4991639;28;20054;-63
2022/06/30 06:53:48;;;;;;;6.80;4.63;;;;;;;23.95;54.77;99412.00;4992003;28;20042;-62
2022/06/30 06:56:15;;;;;;;7.15;5.60;;;;;;;24.02;54.68;99412.97;4991579;28;20078;-61
2022/06/30 06:58:42;;;;;;;6.50;5.03;;;;;;;24.11;54.36;99407.53;4991519;28;20109;-62
2022/06/30 07:01:08;;;;;;;5.63;4.95;;;;;;;24.18;54.52;99398.53;4991442;28;20104;-62
2022/06/30 07:03:35;;;;;;;5.97;5.13;;;;;;;24.27;54.30;99399.28;4991472;28;20046;-62
2022/06/30 07:06:02;;;;;;;7.38;5.28;;;;;;;24.33;54.77;99403.06;4991322;28;20100;-63
2022/06/30 07:08:29;;;;;;;5.70;5.20;;;;;;;24.40;54.53;99403.97;4991122;28;20054;-65
2022/06/30 07:10:56;;;;;;;6.03;5.30;;;;;;;24.49;54.53;99406.56;4991447;28;20042;-61
2022/06/30 07:13:24;;;;;;;6.63;5.65;;;;;;;24.55;54.08;99409.34;4991662;28;20050;-61
2022/06/30 07:15:50;;;;;;;5.80;5.30;;;;;;;24.63;53.88;99407.59;4991483;28;20046;-61
2022/06/30 07:18:17;;;;;;;6.80;5.90;;;;;;;24.68;53.95;99414.06;4991045;28;20054;-66
2022/06/30 07:20:44;;;;;;;5.85;5.35;;;;;;;24.76;54.24;99415.81;4991246;28;20105;-62
2022/06/30 07:23:11;;;;;;;6.35;5.20;;;;;;;24.84;54.29;99412.19;4990961;28;20042;-63
2022/06/30 07:25:57;;;;;;;6.20;5.15;;;;;;;24.91;53.53;99417.66;4991014;28;20050;-62
2022/06/30 07:28:24;;;;;;;5.40;4.90;;;;;;;24.98;53.77;99415.88;4973961;28;20584;-61
2022/06/30 07:31:12;;;;;;;6.03;5.43;;;;;;;25.05;54.46;99414.09;4991184;28;20582;-61
2022/06/30 07:33:40;;;;;;;7.97;5.68;;;;;;;25.15;53.78;99415.63;4990749;28;20066;-62
2022/06/30 07:36:07;;;;;;;5.88;5.32;;;;;;;25.23;53.95;99419.03;4991185;28;20049;-62
2022/06/30 07:38:34;;;;;;;5.90;5.32;;;;;;;25.32;54.51;99424.28;4992743;28;20050;-63
2022/06/30 07:41:00;;;;;;;10.02;5.60;;;;;;;25.40;53.75;99418.75;4995140;28;20050;-61
2022/06/30 07:43:27;;;;;;;7.20;5.30;;;;;;;25.52;53.61;99420.94;4994765;28;20050;-62
2022/06/30 07:45:53;;;;;;;6.43;5.80;;;;;;;25.60;53.20;99412.75;4995052;28;20050;-61
2022/06/30 07:48:20;;;;;;;5.40;4.90;;;;;;;25.68;53.48;99419.84;4994858;28;20129;-61
2022/06/30 07:50:47;;;;;;;6.68;5.95;;;;;;;25.76;53.22;99414.31;4994824;28;20058;-61
2022/06/30 07:53:14;;;;;;;5.95;5.45;;;;;;;25.85;53.26;99415.84;4994725;28;20050;-61
2022/06/30 07:55:40;;;;;;;5.65;5.15;;;;;;;25.94;52.77;99418.38;4994874;28;20054;-61
2022/06/30 07:58:07;;;;;;;6.30;5.70;;;;;;;26.01;52.17;99416.53;4994353;28;20050;-62
2022/06/30 08:00:33;;;;;;;9.63;5.22;;;;;;;26.06;51.46;99422.19;4994521;28;20415;-61
2022/06/30 08:03:00;;;;;;;5.45;4.95;;;;;;;26.12;52.20;99425.94;4994237;28;20049;-63
2022/06/30 08:05:26;;;;;;;5.55;5.05;;;;;;;26.19;51.81;99417.91;4994842;28;20054;-64
2022/06/30 08:07:53;;;;;;;5.47;4.97;;;;;;;26.25;52.13;99419.81;4994712;28;20054;-61
2022/06/30 08:10:20;;;;;;;5.75;5.25;;;;;;;26.32;51.65;99419.88;4994528;28;20105;-63
2022/06/30 08:12:46;;;;;;;5.82;5.15;;;;;;;26.38;51.11;99419.06;4994572;28;20383;-61
2022/06/30 08:15:13;;;;;;;4.93;4.53;;;;;;;26.46;51.05;99424.31;4994185;28;20097;-62
2022/06/30 08:17:40;;;;;;;11.18;4.78;;;;;;;26.54;50.38;99426.03;4994373;28;20042;-62
2022/06/30 08:20:07;;;;;;;5.40;4.90;;;;;;;26.62;50.47;99428.53;4994328;28;20046;-61
2022/06/30 08:22:34;;;;;;;6.13;4.78;;;;;;;26.69;50.39;99425.88;4994424;28;20046;-62
2022/06/30 08:25:00;;;;;;;5.75;5.13;;;;;;;26.78;50.11;99426.50;4994120;28;20048;-62
2022/06/30 08:27:27;;;;;;;5.40;4.70;;;;;;;26.86;50.61;99420.94;4994330;28;20097;-62
2022/06/30 08:29:54;;;;;;;5.38;4.88;;;;;;;26.96;50.67;99425.13;4993848;28;20042;-62
2022/06/30 08:32:20;;;;;;;5.47;4.90;;;;;;;27.06;51.20;99425.59;4994311;28;20054;-62
2022/06/30 08:34:47;;;;;;;5.50;5.00;;;;;;;27.16;51.16;99426.03;4993950;28;20053;-62
2022/06/30 08:37:14;;;;;;;7.22;4.35;;;;;;;27.27;51.39;99421.03;4994094;28;20069;-64
2022/06/30 08:42:26;;;;;;;5.15;4.65;;;;;;;27.51;50.25;99421.47;4993804;28;20046;-61
2022/06/30 08:47:38;;;;;;;4.80;4.35;;;;;;;27.70;49.56;99414.44;4993867;28;20061;-63
2022/06/30 08:50:08;;;;;;;5.25;4.75;;;;;;;27.81;49.80;99412.97;4993108;28;20055;-62
2022/06/30 08:52:51;;;;;;;7.82;4.93;;;;;;;27.89;49.84;99417.31;4993644;28;20050;-62
2022/06/30 08:55:22;;;;;;;6.15;4.60;;;;;;;28.02;49.81;99411.88;4993681;28;20444;-62
2022/06/30 08:57:51;;;;;;;5.85;5.25;;;;;;;28.15;50.32;99416.44;4993676;28;20046;-61
2022/06/30 09:00:18;;;;;;;4.90;4.40;;;;;;;28.25;50.28;99416.00;4975959;28;20049;-62
2022/06/30 09:02:46;;;;;;;5.13;4.40;;;;;;;28.34;49.77;99417.44;4993423;28;20042;-61
2022/06/30 09:05:14;;;;;;;6.78;4.88;;;;;;;28.47;49.36;99413.03;4993237;28;20057;-63
2022/06/30 09:07:41;;;;;;;4.88;4.43;;;;;;;28.57;49.84;99408.00;4993603;28;20054;-63
2022/06/30 09:10:29;;;;;;;10.30;4.40;;;;;;;28.69;49.23;99415.44;4993016;28;20088;-62
2022/06/30 09:13:00;;;;;;;5.85;4.60;;;;;;;28.80;49.25;99411.22;4993325;28;20061;-62
2022/06/30 09:15:38;;;;;;;9.45;4.38;;;;;;;28.86;48.81;99415.78;4993290;28;20050;-62
2022/06/30 09:18:06;;;;;;;4.43;4.03;;;;;;;28.98;48.79;99416.78;4975933;28;20670;-62
2022/06/30 09:20:38;;;;;;;5.10;4.60;;;;;;;29.05;48.40;99413.19;4993037;28;20105;-61
2022/06/30 09:23:23;;;;;;;5.10;4.68;;;;;;;29.11;48.87;99413.16;4993218;28;20043;-62
2022/06/30 09:25:52;;;;;;;6.07;4.30;;;;;;;29.24;48.42;99411.41;4993106;28;20061;-62
2022/06/30 09:28:53;;;;;;;9.63;4.90;;;;;;;29.30;48.50;99409.69;4992915;28;20059;-62
2022/06/30 09:31:45;;;;;;;5.03;4.57;;;;;;;29.44;47.63;99404.97;4990049;28;20132;-63
2022/06/30 09:34:21;;;;;;;4.57;4.18;;;;;;;29.52;48.46;99404.75;4975693;28;20053;-63
2022/06/30 09:36:51;;;;;;;5.93;4.90;;;;;;;29.60;48.28;99407.19;4975731;28;20391;-63
2022/06/30 09:39:20;;;;;;;5.07;4.55;;;;;;;29.69;47.56;99407.72;4975390;28;20582;-63
2022/06/30 09:41:49;;;;;;;5.18;4.70;;;;;;;29.78;47.46;99414.53;4992757;28;20042;-62
2022/06/30 09:44:16;;;;;;;6.32;4.90;;;;;;;29.88;47.69;99405.88;4992631;28;20050;-63
2022/06/30 09:47:00;;;;;;;5.57;4.50;;;;;;;29.93;47.50;99402.47;4992585;28;20395;-62
2022/06/30 09:49:34;;;;;;;4.30;3.97;;;;;;;30.06;46.61;99395.25;4992696;28;20513;-62
2022/06/30 09:52:16;;;;;;;5.25;4.65;;;;;;;30.15;46.41;99402.06;4992976;28;20042;-62
2022/06/30 09:55:02;;;;;;;4.72;4.32;;;;;;;30.26;47.09;99400.50;4992800;28;20398;-62
2022/06/30 09:57:41;;;;;;;5.25;4.68;;;;;;;30.41;44.22;99400.09;4992470;28;20057;-63
2022/06/30 10:00:16;;;;;;;4.80;4.38;;;;;;;30.50;45.54;99395.19;4992342;28;20054;-63
2022/06/30 10:02:46;;;;;;;5.20;4.70;;;;;;;30.61;45.45;99386.25;4974770;28;20042;-62
2022/06/30 10:05:15;;;;;;;4.70;4.05;;;;;;;30.69;46.22;99383.22;4992441;28;20053;-62
2022/06/30 10:07:42;;;;;;;4.65;4.20;;;;;;;30.81;45.93;99391.47;4992250;28;20394;-62
2022/06/30 10:10:12;;;;;;;4.90;4.38;;;;;;;30.93;46.16;99396.94;4992216;28;20505;-63
2022/06/30 10:12:40;;;;;;;6.68;4.28;;;;;;;31.10;45.79;99388.13;4992086;28;20062;-63
2022/06/30 10:15:08;;;;;;;4.72;4.32;;;;;;;31.27;44.15;99387.44;4992252;28;20053;-62
2022/06/30 10:17:42;;;;;;;4.40;4.00;;;;;;;31.41;44.32;99377.19;4992094;28;20073;-62
2022/06/30 10:20:15;;;;;;;5.53;3.97;;;;;;;31.59;44.36;99379.81;4991775;28;20050;-63
2022/06/30 10:22:42;;;;;;;5.70;4.50;;;;;;;31.72;43.66;99373.31;4974970;28;20050;-62
2022/06/30 10:25:09;;;;;;;4.60;4.20;;;;;;;31.83;43.19;99382.53;4974934;28;20056;-63
2022/06/30 10:27:36;;;;;;;7.05;4.10;;;;;;;31.92;43.11;99379.47;4992373;28;20054;-63
2022/06/30 10:30:09;;;;;;;8.13;4.22;;;;;;;31.97;42.19;99382.31;4992311;28;20046;-62
2022/06/30 10:33:04;;;;;;;4.10;3.80;;;;;;;31.94;42.41;99375.44;4991765;28;20138;-62
2022/06/30 10:35:33;;;;;;;4.30;3.83;;;;;;;31.96;41.50;99373.31;4992205;28;20053;-63
2022/06/30 10:38:09;;;;;;;4.05;3.75;;;;;;;31.92;41.64;99365.88;4974592;28;20065;-62
2022/06/30 10:41:04;;;;;;;3.80;3.50;;;;;;;31.90;42.51;99368.81;4974512;28;20410;-63
2022/06/30 10:43:34;;;;;;;4.53;3.72;;;;;;;32.01;41.76;99374.47;4991574;28;20054;-62
2022/06/30 10:46:03;;;;;;;4.78;3.85;;;;;;;32.11;41.74;99369.28;4991809;28;20105;-62
2022/06/30 10:49:10;;;;;;;3.63;3.30;;;;;;;32.29;43.19;99370.16;4974260;28;20398;-64
2022/06/30 10:51:36;;;;;;;4.20;3.90;;;;;;;32.69;43.34;99368.50;4941611;28;20050;-63
2022/06/30 10:54:03;;;;;;;4.03;3.63;;;;;;;33.14;43.57;99364.13;4991697;28;20061;-64
2022/06/30 10:57:02;;;;;;;5.80;3.60;;;;;;;33.76;42.41;99356.09;4991589;28;20101;-62
2022/06/30 10:59:36;;;;;;;4.50;3.40;;;;;;;34.39;39.97;99350.31;4936439;28;20057;-62
2022/06/30 11:02:09;;;;;;;4.38;3.17;;;;;;;34.88;39.02;99350.56;4991508;28;20047;-62
2022/06/30 11:04:41;;;;;;;3.25;3.05;;;;;;;35.15;37.84;99347.81;4991464;28;20058;-63
2022/06/30 11:07:12;;;;;;;3.33;2.95;;;;;;;35.25;37.03;99344.34;4974227;28;20050;-63
2022/06/30 11:09:47;;;;;;;3.90;3.17;;;;;;;35.18;36.39;99344.56;4991567;28;20105;-63
2022/06/30 11:12:15;;;;;;;3.72;3.08;;;;;;;35.21;37.70;99337.75;4991295;28;20073;-63
2022/06/30 11:14:50;;;;;;;3.88;2.88;;;;;;;35.31;37.50;99339.69;4991449;28;20058;-64
2022/06/30 11:17:20;;;;;;;3.78;2.97;;;;;;;35.58;37.80;99347.00;4991504;28;20134;-62
2022/06/30 11:19:47;;;;;;;2.95;2.72;;;;;;;35.91;37.71;99334.06;4973684;28;20050;-61
2022/06/30 11:22:16;;;;;;;6.35;2.50;;;;;;;36.32;37.31;99329.84;4991198;28;20482;-63
2022/06/30 11:24:45;;;;;;;5.95;2.67;;;;;;;36.73;35.12;99334.59;4973744;28;20058;-63
2022/06/30 11:27:23;;;;;;;7.03;3.20;;;;;;;37.01;34.06;99333.25;4991022;28;20062;-64
2022/06/30 11:30:01;;;;;;;3.00;2.80;;;;;;;37.12;33.50;99331.31;4991001;28;20046;-64
2022/06/30 11:32:28;;;;;;;5.03;3.00;;;;;;;37.12;32.83;99334.06;4991280;28;20050;-62
2022/06/30 11:34:56;;;;;;;3.90;3.03;;;;;;;36.97;31.61;99326.66;4991264;28;20069;-63
2022/06/30 11:37:26;;;;;;;3.45;2.75;;;;;;;36.67;32.28;99328.31;4991076;28;20051;-62
2022/06/30 11:40:00;;;;;;;3.65;2.90;;;;;;;36.31;31.77;99326.28;4990726;28;20057;-64
2022/06/30 11:42:27;;;;;;;5.70;2.85;;;;;;;36.04;32.57;99326.44;4973760;28;20054;-62
2022/06/30 11:44:54;;;;;;;3.53;3.13;;;;;;;35.79;33.15;99323.31;4990996;28;20070;-62
2022/06/30 11:47:22;;;;;;;3.10;2.80;;;;;;;35.64;33.64;99313.13;4991166;28;20439;-62
2022/06/30 11:49:50;;;;;;;4.85;2.50;;;;;;;35.55;32.42;99309.22;4990614;28;20474;-62
2022/06/30 11:52:22;;;;;;;3.03;2.50;;;;;;;35.46;32.34;99311.63;4991174;28;20050;-62
2022/06/30 11:54:52;;;;;;;4.80;2.70;;;;;;;35.36;32.72;99317.88;4991021;28;20046;-63
2022/06/30 11:57:21;;;;;;;5.50;2.55;;;;;;;35.25;31.92;99313.41;4991047;28;20109;-64